createdAt,value
2019-03-11T00:01:49.813Z,2.23
2019-03-11T00:04:20.780Z,2.10
2019-03-11T00:06:51.625Z,4.83
2019-03-11T00:09:21.939Z,2.17
2019-03-11T00:11:52.140Z,2.07
2019-03-11T00:14:22.445Z,2.07
2019-03-11T00:16:52.777Z,2.50
2019-03-11T00:19:23.002Z,1.93
2019-03-11T00:21:53.266Z,2.00
2019-03-11T00:24:23.542Z,2.13
2019-03-11T00:26:53.833Z,2.10
2019-03-11T00:29:24.100Z,2.33
2019-03-11T00:31:54.417Z,2.70
2019-03-11T00:34:24.683Z,2.10
2019-03-11T00:36:54.987Z,2.33
2019-03-11T00:39:25.271Z,2.20
2019-03-11T00:41:55.474Z,2.20
2019-03-11T00:44:25.711Z,1.90
2019-03-11T00:46:55.923Z,1.77
2019-03-11T00:49:26.230Z,1.67
2019-03-11T00:51:56.507Z,2.10
2019-03-11T00:54:26.709Z,2.20
2019-03-11T00:56:56.953Z,1.90
2019-03-11T00:59:27.238Z,2.13
2019-03-11T01:01:57.513Z,2.43
2019-03-11T01:04:27.805Z,2.47
2019-03-11T01:06:58.098Z,2.20
2019-03-11T01:09:28.405Z,2.47
2019-03-11T01:11:58.673Z,2.13
2019-03-11T01:14:28.900Z,2.10
2019-03-11T01:16:59.179Z,2.53
2019-03-11T01:19:29.529Z,2.27
2019-03-11T01:21:59.772Z,2.43
2019-03-11T01:24:30.098Z,2.30
2019-03-11T01:27:00.293Z,2.30
2019-03-11T01:29:30.719Z,2.57
2019-03-11T01:32:02.029Z,2.27
2019-03-11T01:34:32.397Z,1.80
2019-03-11T01:37:02.581Z,2.17
2019-03-11T01:39:32.924Z,2.63
2019-03-11T01:42:03.189Z,2.33
2019-03-11T01:44:33.417Z,2.30
2019-03-11T01:47:03.702Z,2.20
2019-03-11T01:49:34.005Z,2.50
2019-03-11T01:52:04.272Z,2.37
2019-03-11T01:54:34.543Z,2.00
2019-03-11T01:57:04.737Z,2.37
2019-03-11T01:59:35.061Z,2.47
2019-03-11T02:02:05.325Z,2.50
2019-03-11T02:04:35.673Z,3.00
2019-03-11T02:07:05.924Z,2.40
2019-03-11T02:09:36.245Z,1.90
2019-03-11T02:12:06.498Z,2.70
2019-03-11T02:14:36.845Z,2.40
2019-03-11T02:17:07.096Z,2.80
2019-03-11T02:19:37.388Z,2.60
2019-03-11T02:22:07.700Z,2.87
2019-03-11T02:24:37.988Z,2.10
2019-03-11T02:27:08.251Z,2.27
2019-03-11T02:29:38.440Z,2.27
2019-03-11T02:32:08.717Z,2.87
2019-03-11T02:34:38.924Z,2.27
2019-03-11T02:37:09.201Z,2.70
2019-03-11T02:39:39.498Z,2.70
2019-03-11T02:42:09.690Z,2.30
2019-03-11T02:44:40.025Z,2.37
2019-03-11T02:47:10.355Z,2.50
2019-03-11T02:49:43.768Z,2.73
2019-03-11T02:52:12.524Z,2.87
2019-03-11T02:54:42.737Z,2.60
2019-03-11T02:57:13.005Z,3.00
2019-03-11T02:59:43.301Z,2.80
2019-03-11T03:02:32.541Z,2.50
2019-03-11T03:05:13.990Z,3.00
2019-03-11T03:07:44.220Z,2.43
2019-03-11T03:10:14.933Z,2.87
2019-03-11T03:12:45.197Z,2.67
2019-03-11T03:15:15.398Z,2.80
2019-03-11T03:17:45.616Z,3.00
2019-03-11T03:20:16.353Z,2.43
2019-03-11T03:22:46.625Z,3.00
2019-03-11T03:25:16.848Z,2.33
2019-03-11T03:27:47.040Z,2.70
2019-03-11T03:30:17.387Z,2.40
2019-03-11T03:32:47.627Z,2.60
2019-03-11T03:35:17.849Z,2.33
2019-03-11T03:37:48.044Z,2.50
2019-03-11T03:40:18.326Z,2.63
2019-03-11T03:42:48.673Z,2.83
2019-03-11T03:45:27.041Z,2.33
2019-03-11T03:47:57.448Z,3.00
2019-03-11T03:50:28.333Z,2.30
2019-03-11T03:52:58.648Z,3.00
2019-03-11T03:55:28.859Z,2.60
2019-03-11T03:57:59.138Z,2.53
2019-03-11T04:00:29.308Z,2.70
2019-03-11T04:02:59.613Z,3.13
2019-03-11T04:05:29.870Z,2.67
2019-03-11T04:08:00.117Z,2.70
2019-03-11T04:10:32.758Z,2.87
2019-03-11T04:13:02.279Z,2.90
2019-03-11T04:15:35.591Z,2.63
2019-03-11T04:18:09.023Z,2.40
2019-03-11T04:20:39.313Z,2.70
2019-03-11T04:23:09.576Z,2.70
2019-03-11T04:25:39.771Z,2.90
2019-03-11T04:28:10.149Z,2.60
2019-03-11T04:30:40.358Z,3.57
2019-03-11T04:33:10.547Z,2.47
2019-03-11T04:35:40.854Z,3.20
2019-03-11T04:38:11.101Z,2.17
2019-03-11T04:40:41.371Z,3.47
2019-03-11T04:43:11.642Z,2.60
2019-03-11T04:45:41.921Z,2.60
2019-03-11T04:48:12.117Z,3.00
2019-03-11T04:50:42.385Z,2.70
2019-03-11T04:53:12.646Z,2.70
2019-03-11T04:55:42.865Z,2.70
2019-03-11T04:58:13.183Z,2.83
2019-03-11T05:00:43.479Z,2.80
2019-03-11T05:03:13.723Z,2.33
2019-03-11T05:05:43.934Z,2.20
2019-03-11T05:08:14.164Z,2.63
2019-03-11T05:10:44.372Z,2.03
2019-03-11T05:13:14.651Z,2.10
2019-03-11T05:15:44.832Z,2.10
2019-03-11T05:18:15.109Z,2.10
2019-03-11T05:20:45.309Z,1.80
2019-03-11T05:23:15.597Z,1.80
2019-03-11T05:25:45.809Z,2.30
2019-03-11T05:28:16.110Z,2.33
2019-03-11T05:30:46.469Z,2.60
2019-03-11T05:33:16.676Z,1.83
2019-03-11T05:35:47.060Z,1.90
2019-03-11T05:38:17.308Z,2.13
2019-03-11T05:40:47.530Z,2.03
2019-03-11T05:43:17.815Z,2.13
2019-03-11T05:45:48.018Z,2.53
2019-03-11T05:48:18.297Z,1.90
2019-03-11T05:50:48.512Z,1.70
2019-03-11T05:53:18.771Z,1.60
2019-03-11T05:55:49.002Z,1.70
2019-03-11T05:58:19.178Z,1.23
2019-03-11T06:00:49.561Z,1.80
2019-03-11T06:03:19.789Z,2.00
2019-03-11T06:05:50.131Z,1.23
2019-03-11T06:08:24.007Z,1.37
2019-03-11T06:10:54.324Z,1.73
2019-03-11T06:13:35.277Z,1.00
2019-03-11T06:15:56.501Z,1.20
2019-03-11T06:18:54.929Z,1.00
2019-03-11T06:21:33.555Z,0.97
2019-03-11T06:24:03.848Z,1.10
2019-03-11T06:26:35.241Z,1.27
2019-03-11T06:29:07.998Z,1.13
2019-03-11T06:31:38.566Z,2.20
2019-03-11T06:34:09.858Z,0.93
2019-03-11T06:36:40.201Z,1.00
2019-03-11T06:39:10.454Z,1.10
2019-03-11T06:41:40.802Z,1.10
2019-03-11T06:44:11.128Z,1.27
2019-03-11T06:46:41.450Z,0.90
2019-03-11T06:49:11.743Z,1.10
2019-03-11T06:51:42.016Z,1.10
2019-03-11T06:54:12.194Z,1.00
2019-03-11T06:56:42.454Z,1.03
2019-03-11T06:59:12.730Z,1.00
2019-03-11T07:01:43.074Z,1.00
2019-03-11T07:04:13.356Z,1.30
2019-03-11T07:06:43.573Z,1.00
2019-03-11T07:09:13.871Z,0.93
2019-03-11T07:11:44.423Z,2.83
2019-03-11T07:14:14.686Z,1.20
2019-03-11T07:16:44.912Z,1.00
2019-03-11T07:19:15.225Z,0.90
2019-03-11T07:21:45.579Z,0.90
2019-03-11T07:24:15.871Z,1.10
2019-03-11T07:26:46.098Z,0.90
2019-03-11T07:29:16.367Z,0.90
2019-03-11T07:31:46.777Z,1.30
2019-03-11T07:34:16.977Z,0.83
2019-03-11T07:36:47.257Z,1.17
2019-03-11T07:39:17.584Z,1.10
2019-03-11T07:41:47.858Z,1.50
2019-03-11T07:44:18.161Z,0.90
2019-03-11T07:46:48.359Z,1.10
2019-03-11T07:49:18.612Z,1.00
2019-03-11T07:51:48.937Z,1.17
2019-03-11T07:54:19.191Z,1.00
2019-03-11T07:56:49.409Z,0.77
2019-03-11T07:59:19.683Z,1.10
2019-03-11T08:01:50.086Z,0.87
2019-03-11T08:04:20.287Z,0.73
2019-03-11T08:06:50.779Z,0.80
2019-03-11T08:09:21.058Z,1.03
2019-03-11T08:11:51.286Z,0.80
2019-03-11T08:14:21.492Z,1.20
2019-03-11T08:16:51.708Z,1.23
2019-03-11T08:19:21.967Z,1.30
2019-03-11T08:21:52.253Z,2.03
2019-03-11T08:24:22.534Z,2.03
2019-03-11T08:26:52.835Z,4.07
2019-03-11T08:29:23.142Z,2.50
2019-03-11T08:31:53.531Z,5.13
2019-03-11T08:34:23.829Z,10.23
2019-03-11T08:36:54.140Z,10.53
2019-03-11T08:39:24.425Z,2.53
2019-03-11T08:41:54.733Z,1.20
2019-03-11T08:44:25.025Z,2.40
2019-03-11T08:46:55.237Z,1.10
2019-03-11T08:49:25.475Z,1.27
2019-03-11T08:51:55.726Z,1.13
2019-03-11T08:54:25.929Z,0.87
2019-03-11T08:56:57.911Z,2.90
2019-03-11T08:59:28.173Z,1.60
2019-03-11T09:01:58.387Z,2.77
2019-03-11T09:04:28.643Z,1.60
2019-03-11T09:06:58.937Z,1.03
2019-03-11T09:09:31.601Z,0.90
2019-03-11T09:12:01.169Z,1.20
2019-03-11T09:14:31.377Z,8.20
2019-03-11T09:17:01.663Z,3.40
2019-03-11T09:19:31.958Z,6.63
2019-03-11T09:22:02.191Z,1.50
2019-03-11T09:24:32.483Z,1.40
2019-03-11T09:27:02.797Z,1.07
2019-03-11T09:29:32.991Z,1.00
2019-03-11T09:32:03.299Z,0.87
2019-03-11T09:34:33.525Z,1.10
2019-03-11T09:37:03.868Z,1.27
2019-03-11T09:39:34.180Z,1.50
2019-03-11T09:42:04.537Z,1.13
2019-03-11T09:44:34.838Z,1.10
2019-03-11T09:47:05.120Z,1.13
2019-03-11T09:49:35.320Z,1.30
2019-03-11T09:52:05.634Z,0.93
2019-03-11T09:54:35.939Z,1.20
2019-03-11T09:57:06.182Z,1.37
2019-03-11T09:59:36.382Z,1.10
2019-03-11T10:02:06.765Z,1.20
2019-03-11T10:04:37.052Z,1.40
2019-03-11T10:07:07.330Z,2.50
2019-03-11T10:09:37.636Z,1.17
2019-03-11T10:12:07.986Z,1.30
2019-03-11T10:14:38.297Z,1.20
2019-03-11T10:17:08.595Z,1.30
2019-03-11T10:19:39.045Z,1.30
2019-03-11T10:22:09.366Z,1.50
2019-03-11T10:24:39.641Z,0.90
2019-03-11T10:27:10.002Z,1.57
2019-03-11T10:29:40.357Z,2.40
2019-03-11T10:32:10.665Z,3.27
2019-03-11T10:34:40.852Z,1.87
2019-03-11T10:37:11.086Z,2.00
2019-03-11T10:39:41.306Z,1.10
2019-03-11T10:42:11.651Z,1.00
2019-03-11T10:44:41.989Z,1.40
2019-03-11T10:47:12.321Z,0.80
2019-03-11T10:49:42.595Z,1.03
2019-03-11T10:52:12.897Z,1.20
2019-03-11T10:54:43.197Z,1.70
2019-03-11T10:57:13.530Z,1.40
2019-03-11T10:59:43.814Z,1.33
2019-03-11T11:02:14.167Z,1.30
2019-03-11T11:04:48.039Z,1.43
2019-03-11T11:07:16.536Z,1.30
2019-03-11T11:09:48.090Z,1.60
2019-03-11T11:12:18.408Z,1.20
2019-03-11T11:14:48.701Z,1.60
2019-03-11T11:17:19.100Z,1.30
2019-03-11T11:19:49.308Z,1.17
2019-03-11T11:22:19.628Z,1.13
2019-03-11T11:24:49.915Z,0.97
2019-03-11T11:27:20.195Z,1.37
2019-03-11T11:29:50.370Z,1.10
2019-03-11T11:32:23.337Z,1.43
2019-03-11T11:34:53.535Z,1.30
2019-03-11T11:37:23.852Z,1.23
2019-03-11T11:39:54.121Z,1.20
2019-03-11T11:42:24.321Z,1.23
2019-03-11T11:44:54.505Z,1.57
2019-03-11T11:47:24.789Z,1.10
2019-03-11T11:49:55.057Z,1.50
2019-03-11T11:52:25.364Z,3.80
2019-03-11T11:54:56.477Z,4.60
2019-03-11T11:57:26.711Z,3.90
2019-03-11T11:59:57.057Z,13.40
2019-03-11T12:02:27.323Z,3.80
2019-03-11T12:04:57.662Z,1.40
2019-03-11T12:07:28.025Z,2.10
2019-03-11T12:09:59.600Z,1.47
2019-03-11T12:12:29.914Z,1.30
2019-03-11T12:15:00.349Z,1.70
2019-03-11T12:17:30.650Z,1.30
2019-03-11T12:20:02.970Z,1.17
2019-03-11T12:22:33.262Z,1.43
2019-03-11T12:25:03.532Z,1.20
2019-03-11T12:27:33.736Z,1.40
2019-03-11T12:30:04.848Z,1.50
2019-03-11T12:32:35.142Z,1.23
2019-03-11T12:35:06.026Z,1.47
2019-03-11T12:37:36.313Z,1.37
2019-03-11T12:40:06.997Z,1.40
2019-03-11T12:42:37.299Z,1.80
2019-03-11T12:45:08.905Z,1.20
2019-03-11T12:47:39.115Z,1.30
2019-03-11T12:50:14.673Z,1.10
2019-03-11T12:52:44.160Z,1.10
2019-03-11T12:55:14.456Z,1.40
2019-03-11T12:57:44.682Z,1.87
2019-03-11T13:00:16.803Z,1.37
2019-03-11T13:02:47.123Z,1.93
2019-03-11T13:05:17.518Z,1.07
2019-03-11T13:07:48.013Z,1.17
2019-03-11T13:10:19.351Z,1.47
2019-03-11T13:12:49.869Z,1.63
2019-03-11T13:15:20.392Z,2.00
2019-03-11T13:17:50.703Z,1.50
2019-03-11T13:20:27.634Z,2.10
2019-03-11T13:22:57.972Z,1.33
2019-03-11T13:25:28.238Z,1.43
2019-03-11T13:27:58.429Z,1.37
2019-03-11T13:30:28.630Z,1.50
2019-03-11T13:32:58.821Z,1.50
2019-03-11T13:35:29.074Z,1.30
2019-03-11T13:37:59.341Z,1.53
2019-03-11T13:40:29.686Z,1.20
2019-03-11T13:42:59.986Z,1.53
2019-03-11T13:45:30.264Z,1.30
2019-03-11T13:48:00.576Z,1.17
2019-03-11T13:50:30.944Z,2.00
2019-03-11T13:53:01.267Z,1.43
2019-03-11T13:55:31.610Z,1.50
2019-03-11T13:58:01.934Z,1.37
2019-03-11T14:00:32.369Z,1.30
2019-03-11T14:03:02.695Z,1.30
2019-03-11T14:05:32.897Z,1.20
2019-03-11T14:08:03.192Z,1.53
2019-03-11T14:10:33.518Z,1.20
2019-03-11T14:13:03.900Z,1.30
2019-03-11T14:15:34.198Z,1.00
2019-03-11T14:18:04.508Z,1.13
2019-03-11T14:20:34.737Z,1.37
2019-03-11T14:23:05.432Z,1.10
2019-03-11T14:25:35.828Z,1.30
2019-03-11T14:28:06.134Z,1.47
2019-03-11T14:30:39.205Z,1.40
2019-03-11T14:33:09.462Z,1.97
2019-03-11T14:35:39.716Z,1.37
2019-03-11T14:38:10.058Z,1.60
2019-03-11T14:40:40.405Z,1.33
2019-03-11T14:43:10.709Z,1.10
2019-03-11T14:45:40.929Z,1.23
2019-03-11T14:48:11.284Z,1.60
2019-03-11T14:50:41.582Z,1.40
2019-03-11T14:53:11.903Z,1.60
2019-03-11T14:55:42.225Z,1.60
2019-03-11T14:58:12.438Z,1.13
2019-03-11T15:00:42.743Z,1.20
2019-03-11T15:03:13.133Z,1.30
2019-03-11T15:05:43.451Z,1.00
2019-03-11T15:08:13.742Z,1.50
2019-03-11T15:10:44.074Z,1.27
2019-03-11T15:13:16.930Z,1.30
2019-03-11T15:15:47.221Z,1.20
2019-03-11T15:18:17.421Z,1.20
2019-03-11T15:20:47.713Z,1.10
2019-03-11T15:23:20.666Z,1.50
2019-03-11T15:25:50.225Z,1.27
2019-03-11T15:28:20.550Z,1.40
2019-03-11T15:30:50.819Z,1.30
2019-03-11T15:33:21.214Z,1.50
2019-03-11T15:35:51.505Z,1.33
2019-03-11T15:38:21.945Z,1.20
2019-03-11T15:40:52.271Z,1.33
2019-03-11T15:43:22.606Z,1.23
2019-03-11T15:45:52.934Z,1.43
2019-03-11T15:48:23.321Z,1.30
2019-03-11T15:50:53.577Z,1.17
2019-03-11T15:53:23.884Z,1.30
2019-03-11T15:55:54.139Z,1.20
2019-03-11T15:58:24.385Z,1.50
2019-03-11T16:00:54.697Z,1.23
2019-03-11T16:03:32.751Z,1.10
2019-03-11T16:05:57.353Z,1.50
2019-03-11T16:08:27.658Z,1.70
2019-03-11T16:10:57.833Z,1.17
2019-03-11T16:13:28.140Z,1.23
2019-03-11T16:15:58.338Z,1.63
2019-03-11T16:18:28.607Z,1.40
2019-03-11T16:20:58.906Z,5.07
2019-03-11T16:23:29.232Z,24.53
2019-03-11T16:25:59.507Z,22.47
2019-03-11T16:28:29.785Z,16.37
2019-03-11T16:31:00.056Z,1.80
2019-03-11T16:33:30.343Z,3.40
2019-03-11T16:36:00.625Z,2.13
2019-03-11T16:38:30.817Z,4.43
2019-03-11T16:41:01.047Z,5.23
2019-03-11T16:43:31.449Z,3.83
2019-03-11T16:46:04.394Z,5.60
2019-03-11T16:48:33.841Z,4.83
2019-03-11T16:51:04.300Z,2.30
2019-03-11T16:53:34.522Z,1.67
2019-03-11T16:56:04.892Z,1.50
2019-03-11T16:58:35.100Z,1.60
2019-03-11T17:01:08.067Z,1.77
2019-03-11T17:03:38.264Z,1.70
2019-03-11T17:06:08.481Z,1.53
2019-03-11T17:08:38.748Z,1.27
2019-03-11T17:11:09.057Z,1.10
2019-03-11T17:13:39.373Z,1.37
2019-03-11T17:16:09.631Z,1.47
2019-03-11T17:18:39.818Z,1.40
2019-03-11T17:21:10.058Z,1.30
2019-03-11T17:23:40.437Z,1.23
2019-03-11T17:26:10.736Z,1.00
2019-03-11T17:28:41.029Z,1.50
2019-03-11T17:31:11.325Z,1.27
2019-03-11T17:33:41.640Z,1.10
2019-03-11T17:36:11.894Z,1.60
2019-03-11T17:38:42.248Z,1.27
2019-03-11T17:41:12.564Z,1.50
2019-03-11T17:43:42.859Z,1.30
2019-03-11T17:46:13.224Z,1.97
2019-03-11T17:48:43.506Z,1.33
2019-03-11T17:51:13.809Z,1.40
2019-03-11T17:53:44.094Z,1.10
2019-03-11T17:56:14.334Z,1.30
2019-03-11T17:58:44.595Z,1.50
2019-03-11T18:01:14.894Z,1.40
2019-03-11T18:03:45.189Z,1.80
2019-03-11T18:06:15.511Z,1.70
2019-03-11T18:08:45.742Z,1.43
2019-03-11T18:11:16.094Z,1.47
2019-03-11T18:13:46.412Z,1.40
2019-03-11T18:16:16.759Z,1.67
2019-03-11T18:18:47.119Z,1.43
2019-03-11T18:21:18.285Z,1.53
2019-03-11T18:23:48.571Z,1.30
2019-03-11T18:26:18.877Z,1.47
2019-03-11T18:28:49.173Z,1.50
2019-03-11T18:31:19.630Z,1.40
2019-03-11T18:33:49.925Z,1.50
2019-03-11T18:36:20.230Z,1.70
2019-03-11T18:38:50.448Z,1.50
2019-03-11T18:41:20.668Z,1.70
2019-03-11T18:43:51.052Z,1.50
2019-03-11T18:46:21.474Z,1.63
2019-03-11T18:48:51.829Z,1.43
2019-03-11T18:51:22.183Z,1.30
2019-03-11T18:53:52.614Z,1.30
2019-03-11T18:56:23.008Z,1.47
2019-03-11T18:58:53.271Z,1.40
2019-03-11T19:01:23.516Z,1.47
2019-03-11T19:03:53.753Z,2.80
2019-03-11T19:06:24.106Z,1.87
2019-03-11T19:08:54.491Z,1.57
2019-03-11T19:11:24.814Z,1.93
2019-03-11T19:13:55.132Z,1.60
2019-03-11T19:16:25.495Z,1.40
2019-03-11T19:18:55.918Z,1.63
2019-03-11T19:21:26.293Z,1.27
2019-03-11T19:23:56.779Z,1.37
2019-03-11T19:26:27.224Z,2.27
2019-03-11T19:28:57.561Z,1.27
2019-03-11T19:31:28.818Z,1.10
2019-03-11T19:33:59.115Z,1.40
2019-03-11T19:36:29.512Z,1.20
2019-03-11T19:38:59.869Z,1.50
2019-03-11T19:41:30.264Z,2.00
2019-03-11T19:44:00.632Z,1.50
2019-03-11T19:46:31.034Z,1.20
2019-03-11T19:49:01.271Z,1.73
2019-03-11T19:51:31.642Z,1.60
2019-03-11T19:54:02.034Z,1.27
2019-03-11T19:56:32.346Z,1.00
2019-03-11T19:59:02.811Z,1.30
2019-03-11T20:01:33.208Z,1.43
2019-03-11T20:04:03.531Z,1.60
2019-03-11T20:06:33.893Z,1.50
2019-03-11T20:09:05.051Z,1.23
2019-03-11T20:11:35.449Z,1.10
2019-03-11T20:14:05.830Z,1.40
2019-03-11T20:16:36.285Z,1.30
2019-03-11T20:19:06.653Z,1.40
2019-03-11T20:21:37.059Z,1.23
2019-03-11T20:24:07.382Z,1.20
2019-03-11T20:26:40.528Z,1.10
2019-03-11T20:29:10.885Z,1.60
2019-03-11T20:31:41.238Z,1.53
2019-03-11T20:34:11.593Z,1.20
2019-03-11T20:36:42.002Z,1.00
2019-03-11T20:39:12.458Z,1.50
2019-03-11T20:41:42.795Z,1.20
2019-03-11T20:44:13.143Z,1.33
2019-03-11T20:46:43.437Z,1.37
2019-03-11T20:49:13.804Z,1.20
2019-03-11T20:51:44.200Z,1.33
2019-03-11T20:54:14.649Z,1.40
2019-03-11T20:56:45.355Z,1.40
2019-03-11T20:59:18.385Z,1.20
2019-03-11T21:01:48.886Z,2.07
2019-03-11T21:04:19.238Z,1.80
2019-03-11T21:06:49.557Z,1.80
2019-03-11T21:09:19.873Z,1.30
2019-03-11T21:11:50.357Z,1.10
2019-03-11T21:14:20.704Z,1.30
2019-03-11T21:16:51.067Z,1.20
2019-03-11T21:19:21.414Z,1.20
2019-03-11T21:21:51.926Z,1.23
2019-03-11T21:24:22.236Z,1.57
2019-03-11T21:26:52.679Z,0.97
2019-03-11T21:29:23.062Z,1.53
2019-03-11T21:31:53.347Z,3.37
2019-03-11T21:34:23.624Z,1.63
2019-03-11T21:36:53.973Z,1.40
2019-03-11T21:39:24.509Z,1.83
2019-03-11T21:41:54.950Z,1.30
2019-03-11T21:44:25.178Z,1.00
2019-03-11T21:46:55.477Z,1.43
2019-03-11T21:49:25.907Z,1.37
2019-03-11T21:51:56.290Z,1.20
2019-03-11T21:54:26.598Z,1.33
2019-03-11T21:56:56.978Z,1.60
2019-03-11T21:59:27.424Z,1.50
2019-03-11T22:01:57.840Z,1.10
2019-03-11T22:04:28.103Z,1.23
2019-03-11T22:06:58.426Z,1.43
2019-03-11T22:09:28.670Z,1.13
2019-03-11T22:11:58.981Z,1.00
2019-03-11T22:14:29.381Z,1.03
2019-03-11T22:16:59.703Z,1.20
2019-03-11T22:19:30.041Z,1.10
2019-03-11T22:22:00.325Z,1.50
2019-03-11T22:24:30.621Z,1.50
2019-03-11T22:27:00.981Z,1.10
2019-03-11T22:29:31.233Z,1.00
2019-03-11T22:32:01.475Z,1.20
2019-03-11T22:34:31.777Z,1.50
2019-03-11T22:37:02.066Z,1.30
2019-03-11T22:39:32.359Z,1.67
2019-03-11T22:42:02.708Z,1.27
2019-03-11T22:44:33.011Z,1.70
2019-03-11T22:47:03.350Z,1.50
2019-03-11T22:49:33.624Z,1.63
2019-03-11T22:52:03.946Z,1.20
2019-03-11T22:54:34.277Z,1.47
2019-03-11T22:57:04.556Z,1.37
2019-03-11T22:59:34.862Z,1.40
2019-03-11T23:02:05.668Z,1.20
2019-03-11T23:04:36.005Z,1.43
2019-03-11T23:07:06.285Z,1.40
2019-03-11T23:09:36.573Z,1.73
2019-03-11T23:12:06.827Z,1.30
2019-03-11T23:14:37.172Z,1.27
2019-03-11T23:17:07.434Z,1.30
2019-03-11T23:19:37.733Z,1.33
2019-03-11T23:22:08.015Z,1.60
2019-03-11T23:24:38.325Z,1.50
2019-03-11T23:27:08.537Z,1.10
2019-03-11T23:29:38.812Z,1.40
2019-03-11T23:32:09.089Z,1.27
2019-03-11T23:34:39.393Z,1.10
2019-03-11T23:37:09.609Z,1.60
2019-03-11T23:39:39.816Z,1.43
2019-03-11T23:42:10.023Z,1.57
2019-03-11T23:44:40.396Z,1.50
2019-03-11T23:47:10.676Z,1.50
2019-03-11T23:49:40.941Z,1.37
2019-03-11T23:52:11.222Z,1.60
2019-03-11T23:54:41.492Z,1.50
2019-03-11T23:57:11.774Z,1.73
2019-03-11T23:59:42.065Z,1.50
